createdAt,value
2023-05-14T00:00:50.777Z,8.25
2023-05-14T00:03:19.283Z,8.77
2023-05-14T00:05:47.542Z,8.48
2023-05-14T00:08:15.837Z,9.65
2023-05-14T00:10:44.242Z,8.50
2023-05-14T00:13:16.833Z,7.85
2023-05-14T00:15:46.067Z,8.63
2023-05-14T00:18:15.614Z,8.80
2023-05-14T00:20:46.425Z,8.52
2023-05-14T00:23:16.158Z,8.43
2023-05-14T00:25:44.805Z,9.13
2023-05-14T00:28:14.797Z,8.27
2023-05-14T00:30:43.179Z,9.88
2023-05-14T00:33:13.979Z,8.18
2023-05-14T00:35:42.515Z,9.48
2023-05-14T00:38:17.148Z,9.13
2023-05-14T00:40:51.211Z,8.20
2023-05-14T00:43:21.194Z,8.80
2023-05-14T00:45:51.247Z,9.20
2023-05-14T00:48:20.120Z,8.93
2023-05-14T00:50:51.040Z,9.13
2023-05-14T00:53:20.227Z,9.27
2023-05-14T00:55:50.875Z,8.88
2023-05-14T00:58:20.922Z,9.35
2023-05-14T01:00:49.138Z,8.82
2023-05-14T01:03:17.482Z,9.55
2023-05-14T01:05:58.831Z,8.65
2023-05-14T01:08:35.050Z,8.85
2023-05-14T01:11:07.923Z,8.43
2023-05-14T01:13:42.791Z,9.65
2023-05-14T01:16:14.301Z,9.13
2023-05-14T01:18:45.898Z,9.00
2023-05-14T01:21:44.893Z,9.33
2023-05-14T01:24:14.415Z,9.95
2023-05-14T01:26:43.956Z,9.05
2023-05-14T01:29:17.444Z,9.95
2023-05-14T01:31:47.189Z,10.05
2023-05-14T01:34:16.616Z,10.20
2023-05-14T01:36:46.109Z,10.25
2023-05-14T01:39:15.318Z,10.38
2023-05-14T01:41:44.072Z,10.18
2023-05-14T01:44:13.149Z,10.38
2023-05-14T01:46:41.617Z,10.15
2023-05-14T01:49:10.967Z,11.27
2023-05-14T01:51:39.427Z,11.38
2023-05-14T01:54:10.090Z,10.95
2023-05-14T01:56:38.128Z,10.77
2023-05-14T01:59:06.540Z,10.23
2023-05-14T02:01:36.153Z,10.70
2023-05-14T02:04:05.969Z,10.30
2023-05-14T02:06:34.068Z,12.15
2023-05-14T02:09:03.272Z,12.60
2023-05-14T02:11:34.228Z,11.80
2023-05-14T02:14:02.514Z,13.02
2023-05-14T02:16:30.660Z,14.15
2023-05-14T02:19:01.373Z,12.98
2023-05-14T02:21:29.679Z,12.98
2023-05-14T02:23:58.357Z,12.40
2023-05-14T02:26:27.009Z,12.63
2023-05-14T02:28:58.179Z,13.80
2023-05-14T02:31:26.860Z,14.75
2023-05-14T02:33:55.694Z,13.65
2023-05-14T02:36:23.886Z,12.98
2023-05-14T02:38:51.924Z,14.38
2023-05-14T02:41:22.547Z,13.73
2023-05-14T02:43:52.500Z,13.43
2023-05-14T02:46:21.933Z,13.60
2023-05-14T02:48:50.240Z,13.88
2023-05-14T02:51:20.583Z,13.15
2023-05-14T02:53:52.624Z,13.02
2023-05-14T02:56:21.441Z,13.18
2023-05-14T02:58:49.944Z,12.30
2023-05-14T03:01:18.884Z,12.77
2023-05-14T03:03:49.745Z,13.07
2023-05-14T03:06:18.488Z,12.65
2023-05-14T03:08:46.882Z,13.43
2023-05-14T03:11:17.707Z,12.65
2023-05-14T03:13:46.748Z,14.05
2023-05-14T03:16:16.885Z,13.23
2023-05-14T03:18:47.674Z,13.13
2023-05-14T03:21:17.498Z,12.75
2023-05-14T03:23:46.535Z,12.98
2023-05-14T03:26:15.409Z,12.57
2023-05-14T03:28:43.725Z,12.68
2023-05-14T03:31:11.953Z,12.77
2023-05-14T03:33:41.597Z,11.88
2023-05-14T03:36:10.385Z,12.10
2023-05-14T03:38:39.954Z,12.50
2023-05-14T03:41:08.414Z,12.30
2023-05-14T03:43:39.168Z,12.07
2023-05-14T03:46:07.422Z,11.82
2023-05-14T03:48:36.210Z,12.20
2023-05-14T03:51:04.880Z,11.88
2023-05-14T03:53:33.309Z,12.25
2023-05-14T03:56:10.847Z,12.02
2023-05-14T03:58:39.701Z,12.77
2023-05-14T04:01:10.502Z,11.57
2023-05-14T04:03:38.600Z,11.45
2023-05-14T04:06:07.051Z,10.68
2023-05-14T04:08:35.325Z,11.05
2023-05-14T04:11:04.914Z,10.55
2023-05-14T04:13:36.651Z,10.00
2023-05-14T04:16:05.010Z,9.05
2023-05-14T04:18:35.257Z,9.10
2023-05-14T04:21:05.201Z,8.70
2023-05-14T04:23:33.507Z,8.50
2023-05-14T04:26:02.527Z,7.88
2023-05-14T04:28:32.251Z,7.95
2023-05-14T04:31:00.480Z,7.93
2023-05-14T04:33:28.514Z,7.78
2023-05-14T04:35:56.838Z,8.07
2023-05-14T04:38:25.530Z,7.15
2023-05-14T04:40:53.910Z,7.60
2023-05-14T04:43:23.057Z,7.20
2023-05-14T04:45:52.916Z,6.95
2023-05-14T04:48:21.663Z,7.28
2023-05-14T04:50:51.056Z,7.13
2023-05-14T04:53:19.636Z,6.95
2023-05-14T04:55:47.649Z,7.45
2023-05-14T04:58:16.052Z,6.45
2023-05-14T05:00:44.575Z,7.32
2023-05-14T05:03:14.759Z,7.40
2023-05-14T05:05:43.504Z,6.65
2023-05-14T05:08:12.857Z,7.13
2023-05-14T05:10:42.483Z,7.07
2023-05-14T05:13:10.654Z,6.25
2023-05-14T05:15:38.841Z,6.35
2023-05-14T05:18:11.205Z,6.38
2023-05-14T05:20:41.064Z,6.25
2023-05-14T05:23:09.840Z,6.40
2023-05-14T05:25:39.953Z,6.00
2023-05-14T05:28:08.629Z,6.65
2023-05-14T05:30:36.684Z,6.13
2023-05-14T05:33:05.022Z,6.05
2023-05-14T05:35:33.234Z,6.00
2023-05-14T05:38:02.800Z,5.95
2023-05-14T05:40:31.162Z,5.22
2023-05-14T05:42:59.567Z,6.03
2023-05-14T05:45:27.914Z,7.00
2023-05-14T05:47:56.174Z,7.07
2023-05-14T05:50:25.192Z,6.40
2023-05-14T05:52:53.669Z,6.28
2023-05-14T05:55:26.143Z,6.18
2023-05-14T05:57:57.242Z,6.30
2023-05-14T06:00:27.304Z,5.63
2023-05-14T06:02:56.412Z,6.38
2023-05-14T06:05:25.070Z,6.28
2023-05-14T06:07:56.587Z,5.78
2023-05-14T06:10:26.134Z,6.22
2023-05-14T06:12:55.236Z,5.78
2023-05-14T06:15:23.848Z,5.45
2023-05-14T06:17:53.293Z,5.45
2023-05-14T06:20:21.698Z,6.20
2023-05-14T06:22:49.942Z,5.68
2023-05-14T06:25:18.877Z,5.22
2023-05-14T06:27:48.637Z,5.28
2023-05-14T06:30:16.928Z,5.68
2023-05-14T06:32:45.476Z,6.18
2023-05-14T06:35:14.584Z,4.95
2023-05-14T06:37:43.093Z,5.32
2023-05-14T06:40:12.515Z,5.90
2023-05-14T06:42:41.203Z,5.80
2023-05-14T06:45:13.922Z,5.40
2023-05-14T06:47:44.483Z,5.10
2023-05-14T06:50:12.865Z,4.72
2023-05-14T06:52:41.558Z,5.60
2023-05-14T06:55:10.423Z,5.22
2023-05-14T06:57:40.561Z,5.65
2023-05-14T07:00:14.605Z,5.72
2023-05-14T07:02:42.720Z,5.45
2023-05-14T07:05:11.364Z,5.45
2023-05-14T07:07:41.371Z,4.93
2023-05-14T07:10:09.969Z,5.93
2023-05-14T07:12:38.477Z,5.40
2023-05-14T07:15:08.723Z,5.72
2023-05-14T07:17:54.527Z,5.70
2023-05-14T07:20:24.023Z,4.95
2023-05-14T07:22:53.387Z,5.85
2023-05-14T07:25:21.582Z,5.40
2023-05-14T07:27:52.704Z,5.63
2023-05-14T07:30:25.247Z,5.22
2023-05-14T07:32:56.639Z,6.00
2023-05-14T07:35:24.802Z,4.80
2023-05-14T07:37:54.674Z,6.00
2023-05-14T07:40:25.270Z,5.43
2023-05-14T07:42:55.201Z,5.85
2023-05-14T07:45:23.900Z,5.00
2023-05-14T07:47:52.423Z,4.97
2023-05-14T07:50:22.551Z,5.45
2023-05-14T07:52:52.109Z,4.97
2023-05-14T07:55:21.899Z,4.63
2023-05-14T07:57:50.521Z,4.20
2023-05-14T08:00:19.356Z,4.72
2023-05-14T08:02:49.323Z,4.35
2023-05-14T08:05:18.982Z,4.60
2023-05-14T08:07:51.103Z,4.82
2023-05-14T08:10:19.626Z,4.10
2023-05-14T08:12:48.019Z,4.80
2023-05-14T08:15:16.917Z,4.57
2023-05-14T08:17:45.940Z,4.55
2023-05-14T08:20:15.374Z,4.90
2023-05-14T08:22:46.022Z,5.07
2023-05-14T08:25:17.739Z,4.60
2023-05-14T08:27:46.478Z,4.47
2023-05-14T08:30:15.470Z,5.10
2023-05-14T08:32:43.940Z,3.85
2023-05-14T08:35:12.755Z,4.05
2023-05-14T08:37:41.254Z,4.50
2023-05-14T08:40:10.540Z,3.75
2023-05-14T08:42:41.887Z,4.05
2023-05-14T08:45:15.383Z,4.03
2023-05-14T08:47:46.592Z,4.03
2023-05-14T08:50:15.227Z,3.45
2023-05-14T08:52:46.317Z,4.15
2023-05-14T08:55:14.702Z,3.90
2023-05-14T08:57:44.784Z,3.83
2023-05-14T09:00:15.729Z,3.55
2023-05-14T09:02:48.956Z,3.88
2023-05-14T09:05:21.995Z,3.78
2023-05-14T09:07:50.771Z,3.85
2023-05-14T09:10:19.958Z,4.13
2023-05-14T09:12:51.669Z,4.25
2023-05-14T09:15:22.169Z,3.75
2023-05-14T09:17:51.535Z,3.95
2023-05-14T09:20:21.074Z,4.20
2023-05-14T09:22:56.753Z,4.05
2023-05-14T09:25:28.344Z,4.13
2023-05-14T09:27:59.137Z,4.20
2023-05-14T09:30:27.976Z,3.90
2023-05-14T09:32:56.651Z,3.63
2023-05-14T09:35:28.334Z,3.92
2023-05-14T09:37:57.809Z,3.72
2023-05-14T09:40:26.556Z,3.08
2023-05-14T09:42:57.316Z,3.60
2023-05-14T09:45:26.132Z,3.25
2023-05-14T09:47:54.782Z,3.65
2023-05-14T09:50:24.395Z,3.80
2023-05-14T09:52:58.822Z,3.42
2023-05-14T09:55:30.418Z,3.78
2023-05-14T09:58:01.443Z,3.75
2023-05-14T10:00:31.141Z,3.50
2023-05-14T10:03:00.218Z,3.70
2023-05-14T10:05:29.694Z,3.53
2023-05-14T10:07:58.926Z,3.90
2023-05-14T10:10:29.821Z,3.85
2023-05-14T10:13:04.520Z,3.60
2023-05-14T10:15:36.908Z,3.42
2023-05-14T10:18:12.416Z,3.38
2023-05-14T10:20:41.699Z,3.95
2023-05-14T10:23:15.380Z,3.10
2023-05-14T10:25:43.916Z,3.30
2023-05-14T10:28:15.013Z,3.97
2023-05-14T10:30:46.561Z,3.40
2023-05-14T10:33:16.855Z,3.40
2023-05-14T10:35:59.851Z,3.33
2023-05-14T10:38:29.286Z,3.83
2023-05-14T10:40:59.094Z,4.00
2023-05-14T10:43:31.013Z,3.97
2023-05-14T10:46:01.923Z,4.30
2023-05-14T10:48:32.538Z,3.95
2023-05-14T10:51:00.825Z,4.03
2023-05-14T10:53:33.817Z,3.58
2023-05-14T10:56:05.876Z,3.75
2023-05-14T10:58:39.602Z,3.58
2023-05-14T11:01:08.563Z,4.10
2023-05-14T11:03:42.342Z,3.88
2023-05-14T11:06:12.447Z,4.10
2023-05-14T11:08:41.637Z,4.40
2023-05-14T11:11:10.987Z,3.78
2023-05-14T11:13:42.005Z,3.97
2023-05-14T11:16:22.581Z,3.40
2023-05-14T11:19:02.905Z,3.80
2023-05-14T11:21:33.473Z,4.03
2023-05-14T11:24:02.492Z,4.07
2023-05-14T11:26:32.871Z,4.13
2023-05-14T11:29:02.493Z,3.88
2023-05-14T11:31:31.236Z,3.72
2023-05-14T11:34:04.297Z,4.13
2023-05-14T11:36:32.847Z,3.50
2023-05-14T11:39:02.310Z,3.97
2023-05-14T11:41:31.427Z,3.33
2023-05-14T11:44:05.312Z,3.20
2023-05-14T11:46:35.525Z,3.83
2023-05-14T11:49:05.648Z,3.20
2023-05-14T11:51:33.919Z,3.92
2023-05-14T11:54:04.319Z,4.00
2023-05-14T11:56:33.046Z,4.13
2023-05-14T11:59:02.841Z,4.13
2023-05-14T12:01:34.747Z,3.85
2023-05-14T12:04:02.860Z,3.33
2023-05-14T12:06:31.973Z,3.60
2023-05-14T12:09:01.424Z,3.85
2023-05-14T12:11:32.550Z,3.70
2023-05-14T12:14:02.432Z,4.00
2023-05-14T12:16:32.913Z,3.55
2023-05-14T12:19:03.669Z,3.45
2023-05-14T12:21:32.561Z,4.10
2023-05-14T12:24:00.956Z,3.55
2023-05-14T12:26:29.223Z,4.07
2023-05-14T12:28:59.658Z,3.55
2023-05-14T12:31:35.410Z,3.55
2023-05-14T12:34:03.968Z,3.95
2023-05-14T12:36:32.889Z,4.10
2023-05-14T12:39:03.815Z,3.63
2023-05-14T12:41:32.463Z,3.55
2023-05-14T12:44:01.640Z,3.33
2023-05-14T12:46:30.231Z,3.50
2023-05-14T12:48:59.650Z,3.50
2023-05-14T12:51:27.780Z,3.83
2023-05-14T12:53:56.177Z,4.20
2023-05-14T12:56:28.307Z,3.55
2023-05-14T12:58:57.969Z,3.38
2023-05-14T13:01:26.026Z,3.58
2023-05-14T13:03:55.657Z,3.30
2023-05-14T13:06:25.814Z,3.70
2023-05-14T13:08:56.764Z,3.60
2023-05-14T13:11:30.146Z,3.60
2023-05-14T13:13:58.567Z,3.88
2023-05-14T13:16:27.084Z,3.97
2023-05-14T13:18:55.595Z,4.43
2023-05-14T13:21:26.098Z,3.47
2023-05-14T13:23:54.374Z,4.03
2023-05-14T13:26:22.714Z,3.53
2023-05-14T13:28:51.277Z,3.63
2023-05-14T13:31:19.503Z,3.60
2023-05-14T13:33:47.950Z,3.35
2023-05-14T13:36:16.801Z,3.55
2023-05-14T13:38:47.155Z,3.38
2023-05-14T13:41:15.719Z,4.50
2023-05-14T13:43:43.960Z,3.70
2023-05-14T13:46:12.026Z,3.60
2023-05-14T13:48:40.665Z,4.65
2023-05-14T13:51:09.049Z,3.40
2023-05-14T13:53:37.581Z,4.15
2023-05-14T13:56:08.580Z,3.92
2023-05-14T13:58:37.184Z,3.25
2023-05-14T14:01:06.104Z,3.30
2023-05-14T14:03:35.840Z,3.60
2023-05-14T14:06:04.130Z,3.97
2023-05-14T14:08:32.510Z,4.00
2023-05-14T14:11:01.789Z,3.42
2023-05-14T14:13:31.622Z,3.47
2023-05-14T14:15:59.749Z,3.53
2023-05-14T14:18:27.791Z,3.25
2023-05-14T14:20:59.005Z,3.63
2023-05-14T14:23:31.051Z,3.92
2023-05-14T14:26:02.020Z,3.55
2023-05-14T14:28:32.331Z,4.03
2023-05-14T14:31:00.618Z,3.42
2023-05-14T14:33:29.335Z,4.05
2023-05-14T14:35:57.981Z,3.05
2023-05-14T14:38:29.070Z,3.50
2023-05-14T14:41:01.054Z,3.45
2023-05-14T14:43:32.273Z,3.45
2023-05-14T14:46:00.410Z,3.40
2023-05-14T14:48:39.513Z,3.45
2023-05-14T14:51:09.131Z,3.38
2023-05-14T14:53:46.040Z,3.67
2023-05-14T14:56:14.871Z,3.80
2023-05-14T14:58:50.962Z,3.78
2023-05-14T15:01:28.126Z,4.32
2023-05-14T15:04:14.193Z,3.78
2023-05-14T15:06:42.338Z,3.90
2023-05-14T15:09:10.847Z,3.90
2023-05-14T15:12:00.066Z,4.40
2023-05-14T15:14:52.259Z,3.80
2023-05-14T15:17:20.581Z,3.60
2023-05-14T15:19:52.498Z,3.45
2023-05-14T15:22:24.359Z,3.58
2023-05-14T15:24:52.486Z,3.92
2023-05-14T15:27:20.751Z,3.50
2023-05-14T15:29:48.962Z,3.67
2023-05-14T15:32:19.269Z,3.30
2023-05-14T15:34:48.083Z,3.30
2023-05-14T15:37:16.245Z,3.95
2023-05-14T15:39:44.617Z,3.45
2023-05-14T15:42:12.814Z,3.10
2023-05-14T15:44:42.746Z,3.67
2023-05-14T15:47:12.923Z,3.45
2023-05-14T15:49:43.037Z,3.70
2023-05-14T15:54:54.320Z,3.70
2023-05-14T15:57:22.574Z,3.42
2023-05-14T15:59:51.439Z,3.75
2023-05-14T16:02:21.642Z,3.63
2023-05-14T16:04:51.494Z,2.88
2023-05-14T16:07:19.610Z,3.67
2023-05-14T16:09:48.048Z,3.55
2023-05-14T16:12:16.275Z,3.53
2023-05-14T16:14:45.298Z,3.60
2023-05-14T16:17:14.402Z,3.35
2023-05-14T16:19:43.242Z,3.35
2023-05-14T16:22:15.508Z,2.83
2023-05-14T16:27:13.190Z,3.45
2023-05-14T16:29:41.799Z,3.30
2023-05-14T16:32:10.571Z,3.45
2023-05-14T16:34:40.620Z,3.47
2023-05-14T16:37:11.951Z,3.30
2023-05-14T16:39:44.839Z,3.30
2023-05-14T16:42:15.240Z,2.97
2023-05-14T16:44:44.061Z,3.50
2023-05-14T16:47:17.697Z,3.60
2023-05-14T16:49:46.854Z,3.85
2023-05-14T16:52:14.942Z,3.55
2023-05-14T16:54:48.157Z,3.38
2023-05-14T16:57:17.549Z,3.72
2023-05-14T16:59:46.442Z,3.10
2023-05-14T17:02:14.636Z,3.70
2023-05-14T17:04:43.591Z,3.88
2023-05-14T17:07:12.358Z,4.25
2023-05-14T17:09:44.881Z,3.25
2023-05-14T17:12:14.590Z,3.33
2023-05-14T17:14:42.577Z,3.60
2023-05-14T17:17:11.964Z,3.55
2023-05-14T17:19:42.688Z,3.28
2023-05-14T17:22:11.158Z,3.75
2023-05-14T17:24:39.853Z,3.20
2023-05-14T17:27:10.889Z,3.55
2023-05-14T17:29:40.260Z,3.03
2023-05-14T17:32:12.174Z,3.42
2023-05-14T17:34:40.763Z,3.53
2023-05-14T17:37:09.569Z,3.00
2023-05-14T17:39:38.650Z,3.47
2023-05-14T17:42:09.991Z,3.30
2023-05-14T17:44:38.023Z,3.88
2023-05-14T17:47:07.508Z,3.15
2023-05-14T17:49:35.868Z,3.50
2023-05-14T17:52:05.494Z,4.10
2023-05-14T17:54:34.897Z,3.60
2023-05-14T17:57:03.296Z,3.30
2023-05-14T17:59:34.869Z,3.40
2023-05-14T18:02:03.313Z,3.78
2023-05-14T18:04:31.442Z,3.33
2023-05-14T18:07:01.110Z,3.13
2023-05-14T18:09:29.424Z,3.97
2023-05-14T18:11:58.360Z,4.15
2023-05-14T18:14:26.620Z,3.72
2023-05-14T18:16:56.853Z,3.28
2023-05-14T18:19:24.965Z,3.60
2023-05-14T18:21:55.476Z,3.97
2023-05-14T18:24:24.225Z,3.88
2023-05-14T18:26:52.677Z,3.60
2023-05-14T18:29:21.385Z,4.13
2023-05-14T18:31:49.866Z,4.22
2023-05-14T18:34:22.119Z,3.30
2023-05-14T18:39:19.345Z,3.72
2023-05-14T18:41:48.411Z,3.92
2023-05-14T18:44:16.363Z,4.03
2023-05-14T18:46:45.243Z,4.20
2023-05-14T18:49:14.645Z,4.40
2023-05-14T18:51:44.356Z,4.65
2023-05-14T18:54:12.472Z,4.10
2023-05-14T18:56:46.733Z,3.90
2023-05-14T18:59:15.634Z,4.93
2023-05-14T19:01:43.838Z,4.22
2023-05-14T19:04:14.069Z,4.53
2023-05-14T19:06:45.112Z,4.13
2023-05-14T19:09:14.945Z,4.15
2023-05-14T19:11:43.188Z,4.00
2023-05-14T19:14:14.205Z,4.22
2023-05-14T19:16:43.213Z,3.88
2023-05-14T19:19:11.967Z,4.38
2023-05-14T19:21:40.091Z,4.47
2023-05-14T19:24:10.342Z,4.57
2023-05-14T19:26:42.416Z,4.43
2023-05-14T19:29:10.581Z,4.78
2023-05-14T19:31:40.017Z,4.70
2023-05-14T19:34:09.903Z,5.15
2023-05-14T19:36:37.970Z,4.80
2023-05-14T19:39:06.150Z,5.05
2023-05-14T19:41:35.859Z,5.22
2023-05-14T19:44:04.351Z,4.60
2023-05-14T19:46:32.497Z,4.55
2023-05-14T19:49:00.989Z,4.75
2023-05-14T19:51:29.013Z,5.18
2023-05-14T19:53:58.638Z,4.93
2023-05-14T19:56:28.493Z,5.25
2023-05-14T19:59:02.196Z,4.88
2023-05-14T20:01:30.439Z,5.50
2023-05-14T20:03:58.611Z,4.70
2023-05-14T20:06:29.017Z,5.15
2023-05-14T20:08:57.638Z,4.85
2023-05-14T20:11:26.602Z,7.57
2023-05-14T20:13:55.644Z,6.13
2023-05-14T20:16:25.345Z,6.43
2023-05-14T20:18:54.688Z,6.15
2023-05-14T20:21:25.295Z,5.35
2023-05-14T20:23:54.410Z,12.45
2023-05-14T20:26:23.646Z,7.80
2023-05-14T20:28:51.872Z,6.80
2023-05-14T20:31:21.530Z,6.55
2023-05-14T20:33:54.606Z,5.57
2023-05-14T20:36:25.689Z,6.22
2023-05-14T20:38:53.802Z,6.43
2023-05-14T20:41:22.749Z,5.68
2023-05-14T20:43:50.981Z,6.28
2023-05-14T20:46:19.835Z,6.07
2023-05-14T20:48:51.925Z,6.55
2023-05-14T20:51:21.969Z,6.25
2023-05-14T20:53:50.386Z,5.68
2023-05-14T20:56:19.251Z,6.53
2023-05-14T20:58:47.695Z,6.32
2023-05-14T21:01:16.182Z,7.50
2023-05-14T21:03:44.789Z,6.28
2023-05-14T21:06:13.776Z,6.78
2023-05-14T21:08:43.236Z,5.95
2023-05-14T21:11:11.376Z,6.20
2023-05-14T21:13:39.626Z,5.32
2023-05-14T21:16:11.889Z,6.60
2023-05-14T21:18:41.762Z,6.55
2023-05-14T21:21:10.037Z,6.15
2023-05-14T21:23:38.097Z,6.57
2023-05-14T21:26:08.470Z,6.60
2023-05-14T21:28:37.643Z,5.25
2023-05-14T21:31:06.078Z,5.78
2023-05-14T21:33:34.354Z,6.60
2023-05-14T21:36:04.903Z,6.50
2023-05-14T21:38:33.123Z,6.63
2023-05-14T21:41:03.137Z,6.55
2023-05-14T21:43:32.613Z,6.18
2023-05-14T21:46:02.220Z,5.93
2023-05-14T21:48:30.277Z,6.10
2023-05-14T21:50:58.504Z,5.85
2023-05-14T21:53:26.790Z,5.90
2023-05-14T21:55:56.393Z,5.90
2023-05-14T21:58:25.160Z,5.95
2023-05-14T22:00:55.327Z,5.88
2023-05-14T22:03:23.486Z,7.10
2023-05-14T22:05:51.822Z,6.03
2023-05-14T22:08:20.745Z,5.70
2023-05-14T22:10:49.110Z,6.28
2023-05-14T22:13:17.895Z,7.30
2023-05-14T22:15:46.773Z,7.03
2023-05-14T22:18:19.335Z,6.72
2023-05-14T22:20:48.039Z,6.68
2023-05-14T22:23:16.410Z,7.15
2023-05-14T22:25:44.827Z,6.22
2023-05-14T22:28:13.390Z,6.43
2023-05-14T22:30:41.495Z,6.50
2023-05-14T22:33:11.790Z,7.03
2023-05-14T22:35:43.881Z,6.72
2023-05-14T22:38:13.276Z,6.30
2023-05-14T22:40:41.620Z,6.43
2023-05-14T22:43:10.501Z,7.50
2023-05-14T22:45:38.604Z,7.32
2023-05-14T22:48:07.183Z,8.02
2023-05-14T22:50:35.309Z,7.15
2023-05-14T22:53:05.641Z,8.05
2023-05-14T22:55:34.075Z,7.82
2023-05-14T22:58:02.743Z,7.95
2023-05-14T23:00:30.890Z,7.53
2023-05-14T23:02:59.866Z,7.43
2023-05-14T23:05:29.629Z,8.18
2023-05-14T23:07:57.952Z,6.95
2023-05-14T23:10:35.298Z,8.40
2023-05-14T23:13:04.588Z,7.88
2023-05-14T23:15:36.707Z,8.82
2023-05-14T23:18:04.969Z,8.38
2023-05-14T23:20:33.576Z,8.10
2023-05-14T23:23:01.578Z,8.80
2023-05-14T23:25:33.218Z,8.32
2023-05-14T23:28:01.777Z,8.43
2023-05-14T23:30:31.441Z,8.35
2023-05-14T23:33:00.706Z,8.10
2023-05-14T23:35:28.962Z,8.40
2023-05-14T23:37:58.168Z,8.20
2023-05-14T23:40:26.326Z,8.32
2023-05-14T23:42:56.164Z,8.52
2023-05-14T23:45:24.463Z,8.95
2023-05-14T23:47:52.787Z,8.45
2023-05-14T23:50:21.574Z,8.82
2023-05-14T23:52:50.447Z,8.82
2023-05-14T23:55:18.954Z,8.70
2023-05-14T23:57:49.593Z,8.55
